Time;durP1;ratioP1;P1;durP2;ratioP2;P2;SDS_P1;SDS_P2;PMS_P1;PMS_P2;Temp;Humidity;BMP_temperature;BMP_pressure;BME280_temperature;BME280_humidity;BME280_pressure;Samples;Min_cycle;Max_cycle;Signal;HPM_P1;HPM_P2
2022/05/08 00:02:04;;;;;;;28.15;4.40;;;10.00;99.90;;;;;;5066510;28;20029;-77
2022/05/08 00:04:29;;;;;;;37.30;4.90;;;10.00;99.90;;;;;;5073668;28;20029;-77
2022/05/08 00:06:55;;;;;;;26.50;5.05;;;9.90;99.90;;;;;;5066379;28;20092;-76
2022/05/08 00:09:20;;;;;;;33.45;4.82;;;10.00;99.90;;;;;;5057959;28;20076;-77
2022/05/08 00:11:46;;;;;;;31.40;4.70;;;9.90;99.90;;;;;;5063401;28;20029;-78
2022/05/08 00:14:11;;;;;;;31.73;5.20;;;9.90;99.90;;;;;;5065700;28;20037;-77
2022/05/08 00:16:37;;;;;;;28.98;4.35;;;9.90;99.90;;;;;;5067796;28;20036;-77
2022/05/08 00:19:02;;;;;;;34.20;5.03;;;9.90;99.90;;;;;;5067215;28;20079;-77
2022/05/08 00:21:28;;;;;;;27.83;5.00;;;9.80;99.90;;;;;;5067006;28;20033;-78
2022/05/08 00:23:54;;;;;;;29.70;5.50;;;9.80;99.90;;;;;;5060460;28;20088;-78
2022/05/08 00:26:19;;;;;;;30.08;5.47;;;9.80;99.90;;;;;;5055866;28;20036;-79
2022/05/08 00:28:45;;;;;;;28.70;4.93;;;9.70;99.90;;;;;;5054940;28;20028;-78
2022/05/08 00:31:11;;;;;;;30.02;4.55;;;;;;;;;;5054666;28;20032;-78
2022/05/08 00:33:38;;;;;;;30.13;5.55;;;9.70;99.90;;;;;;5054206;28;20112;-77
2022/05/08 00:36:05;;;;;;;30.88;4.90;;;9.70;99.90;;;;;;5054650;28;20036;-79
2022/05/08 00:38:30;;;;;;;29.80;4.70;;;9.70;99.90;;;;;;5053004;28;20474;-77
2022/05/08 00:40:56;;;;;;;32.63;4.85;;;9.60;99.90;;;;;;5055515;28;20086;-78
2022/05/08 00:43:34;;;;;;;25.70;4.22;;;9.60;99.90;;;;;;5052916;28;20048;-76
2022/05/08 00:46:11;;;;;;;26.10;4.18;;;9.60;99.90;;;;;;5055324;28;20116;-77
2022/05/08 00:48:38;;;;;;;22.17;4.10;;;9.60;99.90;;;;;;5054351;28;20100;-78
2022/05/08 00:51:11;;;;;;;27.90;4.07;;;9.50;99.90;;;;;;5056341;28;20017;-79
2022/05/08 00:53:41;;;;;;;28.43;4.80;;;9.50;99.90;;;;;;5054692;28;20029;-79
2022/05/08 00:56:09;;;;;;;29.13;4.40;;;9.50;99.90;;;;;;5055879;28;20303;-78
2022/05/08 00:58:36;;;;;;;24.73;5.05;;;9.50;99.90;;;;;;5054662;28;20570;-79
2022/05/08 01:01:03;;;;;;;28.13;4.43;;;9.40;99.90;;;;;;5055015;28;20068;-78
2022/05/08 01:03:29;;;;;;;22.40;4.00;;;9.40;99.90;;;;;;5054939;28;20025;-77
2022/05/08 01:05:55;;;;;;;22.90;4.15;;;9.40;99.90;;;;;;5057216;28;20021;-77
2022/05/08 01:08:22;;;;;;;26.88;4.15;;;9.30;99.90;;;;;;5063522;28;20025;-77
2022/05/08 01:10:48;;;;;;;20.17;4.20;;;9.30;99.90;;;;;;5069860;28;20104;-77
2022/05/08 01:13:14;;;;;;;22.88;3.70;;;9.30;99.90;;;;;;5066098;28;20025;-78
2022/05/08 01:15:45;;;;;;;27.52;4.00;;;9.30;99.90;;;;;;5060815;28;20029;-78
2022/05/08 01:18:12;;;;;;;23.48;4.32;;;9.30;99.90;;;;;;5064487;28;20539;-77
2022/05/08 01:20:39;;;;;;;30.95;4.50;;;9.30;99.90;;;;;;5056397;28;20085;-79
2022/05/08 01:23:05;;;;;;;24.75;4.35;;;9.20;99.90;;;;;;5056160;28;20424;-77
2022/05/08 01:25:35;;;;;;;28.77;4.82;;;9.20;99.90;;;;;;5054908;28;20474;-79
2022/05/08 01:28:04;;;;;;;26.33;4.85;;;9.10;99.90;;;;;;5053624;28;20382;-76
2022/05/08 01:30:32;;;;;;;32.38;5.05;;;9.20;99.90;;;;;;5055782;28;20040;-77
2022/05/08 01:32:58;;;;;;;24.95;4.60;;;9.10;99.90;;;;;;5052699;28;20029;-77
2022/05/08 01:35:24;;;;;;;24.30;4.80;;;9.10;99.90;;;;;;5051099;28;20029;-76
2022/05/08 01:37:50;;;;;;;29.88;5.50;;;9.10;99.90;;;;;;5051894;28;20498;-77
2022/05/08 01:40:17;;;;;;;27.88;5.35;;;9.00;99.90;;;;;;5051563;28;20112;-77
2022/05/08 01:42:43;;;;;;;28.90;5.95;;;9.10;99.90;;;;;;5051880;28;20075;-76
2022/05/08 01:45:09;;;;;;;28.88;5.32;;;9.00;99.90;;;;;;5054586;28;20649;-77
2022/05/08 01:50:19;;;;;;;26.70;5.18;;;9.00;99.90;;;;;;5059595;28;20051;-77
2022/05/08 01:52:45;;;;;;;22.05;4.32;;;9.00;99.90;;;;;;5055455;28;20033;-77
2022/05/08 01:55:10;;;;;;;25.52;5.20;;;8.90;99.90;;;;;;5054801;28;20047;-77
2022/05/08 01:57:36;;;;;;;28.08;4.97;;;8.90;99.90;;;;;;5055157;28;20025;-77
2022/05/08 02:00:02;;;;;;;31.95;5.18;;;8.80;99.90;;;;;;5055084;28;20074;-77
2022/05/08 02:02:27;;;;;;;32.65;5.30;;;8.80;99.90;;;;;;5054975;28;20032;-76
2022/05/08 02:04:53;;;;;;;26.05;5.45;;;8.80;99.90;;;;;;5055095;28;20044;-76
2022/05/08 02:07:19;;;;;;;27.92;4.72;;;8.80;99.90;;;;;;5055106;28;20025;-76
2022/05/08 02:09:45;;;;;;;30.15;5.32;;;;;;;;;;5055207;28;20036;-76
2022/05/08 02:12:11;;;;;;;27.58;5.57;;;8.60;99.90;;;;;;5055434;28;20032;-77
2022/05/08 02:14:37;;;;;;;25.50;5.53;;;8.60;99.90;;;;;;5053938;28;20025;-77
2022/05/08 02:17:04;;;;;;;27.92;5.78;;;8.60;99.90;;;;;;5055231;28;20025;-77
2022/05/08 02:19:29;;;;;;;36.75;6.18;;;8.50;99.90;;;;;;5055552;28;20474;-76
2022/05/08 02:21:55;;;;;;;28.77;5.47;;;8.50;99.90;;;;;;5055837;28;20143;-77
2022/05/08 02:24:20;;;;;;;34.30;6.35;;;8.50;99.90;;;;;;5055978;28;20025;-77
2022/05/08 02:26:46;;;;;;;39.30;5.20;;;8.40;99.90;;;;;;5055515;28;20025;-77
2022/05/08 02:29:11;;;;;;;32.58;5.85;;;8.40;99.90;;;;;;5055672;28;20060;-76
2022/05/08 02:31:37;;;;;;;36.53;6.22;;;8.40;99.90;;;;;;5055629;28;20033;-77
2022/05/08 02:34:02;;;;;;;29.45;5.60;;;8.40;99.90;;;;;;5056210;28;20029;-76
2022/05/08 02:36:28;;;;;;;33.42;6.03;;;8.30;99.90;;;;;;5056425;28;20025;-77
2022/05/08 02:38:53;;;;;;;30.13;5.40;;;8.30;99.90;;;;;;5057660;28;20216;-78
2022/05/08 02:41:19;;;;;;;29.05;5.78;;;8.30;99.90;;;;;;5057564;28;20029;-77
2022/05/08 02:43:44;;;;;;;30.40;5.68;;;8.30;99.90;;;;;;5057915;28;20036;-78
2022/05/08 02:46:10;;;;;;;31.15;6.30;;;8.20;99.90;;;;;;5059244;28;20021;-77
2022/05/08 02:48:35;;;;;;;32.60;5.88;;;8.30;99.90;;;;;;5040178;28;20025;-76
2022/05/08 02:51:01;;;;;;;23.77;4.88;;;8.20;99.90;;;;;;5034092;28;20032;-77
2022/05/08 02:53:26;;;;;;;25.58;5.18;;;8.20;99.90;;;;;;5034239;28;20486;-76
2022/05/08 02:58:36;;;;;;;25.42;5.40;;;8.20;99.90;;;;;;5034144;28;20036;-76
2022/05/08 03:01:06;;;;;;;26.80;5.35;;;8.20;99.90;;;;;;5034061;28;20034;-77
2022/05/08 03:03:32;;;;;;;26.20;5.95;;;8.10;99.90;;;;;;5041393;28;20049;-76
2022/05/08 03:05:58;;;;;;;26.73;5.68;;;8.10;99.90;;;;;;5035716;28;20024;-77
2022/05/08 03:08:23;;;;;;;29.27;6.07;;;8.10;99.90;;;;;;5035141;28;20083;-76
2022/05/08 03:13:38;;;;;;;25.55;6.22;;;8.00;99.90;;;;;;5046407;28;20044;-76
2022/05/08 03:16:05;;;;;;;25.05;5.38;;;8.00;99.90;;;;;;5052828;28;20041;-77
2022/05/08 03:18:31;;;;;;;29.35;5.40;;;8.10;99.90;;;;;;5041874;28;20108;-77
2022/05/08 03:20:57;;;;;;;25.73;5.57;;;8.10;99.90;;;;;;5034561;28;20057;-76
2022/05/08 03:23:22;;;;;;;35.97;6.75;;;8.00;99.90;;;;;;5034191;28;20072;-76
2022/05/08 03:25:48;;;;;;;27.80;5.72;;;8.00;99.90;;;;;;5033826;28;20489;-77
2022/05/08 03:28:18;;;;;;;32.72;6.65;;;8.00;99.90;;;;;;5033824;28;20028;-75
2022/05/08 03:30:44;;;;;;;47.70;7.10;;;8.00;99.90;;;;;;5034398;28;20128;-76
2022/05/08 03:33:10;;;;;;;37.20;6.82;;;7.90;99.90;;;;;;5033659;28;20391;-76
2022/05/08 03:35:36;;;;;;;31.83;5.82;;;7.90;99.90;;;;;;5035591;28;20025;-77
2022/05/08 03:38:02;;;;;;;27.33;5.68;;;7.90;99.90;;;;;;5033604;28;20053;-77
2022/05/08 03:40:27;;;;;;;32.10;6.35;;;7.80;99.90;;;;;;5035465;28;20087;-77
2022/05/08 03:42:54;;;;;;;27.15;6.40;;;7.90;99.90;;;;;;5036450;28;20025;-77
2022/05/08 03:45:20;;;;;;;31.02;6.88;;;7.80;99.90;;;;;;5037994;28;20029;-77
2022/05/08 03:47:48;;;;;;;32.28;6.93;;;7.80;99.90;;;;;;5039126;28;20036;-76
2022/05/08 03:50:14;;;;;;;28.05;6.35;;;7.80;99.90;;;;;;5041039;28;20043;-76
2022/05/08 03:52:39;;;;;;;32.13;6.55;;;7.80;99.90;;;;;;5040732;28;20060;-77
2022/05/08 03:55:05;;;;;;;30.77;6.45;;;7.70;99.90;;;;;;5036470;28;20071;-77
2022/05/08 03:57:31;;;;;;;28.30;6.22;;;7.70;99.90;;;;;;5036311;28;20505;-76
2022/05/08 03:59:57;;;;;;;30.42;6.38;;;7.70;99.90;;;;;;5050782;28;20021;-76
2022/05/08 04:02:22;;;;;;;21.15;5.75;;;7.80;99.90;;;;;;5052487;28;20049;-77
2022/05/08 04:04:48;;;;;;;29.75;6.28;;;7.70;99.90;;;;;;5050824;28;20022;-76
2022/05/08 04:07:14;;;;;;;24.45;5.75;;;7.80;99.90;;;;;;5033853;28;20030;-77
2022/05/08 04:09:39;;;;;;;36.58;6.07;;;7.70;99.90;;;;;;5033799;28;20021;-77
2022/05/08 04:12:05;;;;;;;24.77;6.40;;;7.80;99.90;;;;;;5033033;28;20022;-77
2022/05/08 04:14:30;;;;;;;27.45;7.57;;;7.80;99.90;;;;;;5032978;28;20025;-77
2022/05/08 04:16:56;;;;;;;35.60;7.03;;;7.80;99.90;;;;;;5032669;28;20501;-77
2022/05/08 04:19:22;;;;;;;31.17;6.85;;;7.80;99.90;;;;;;5033311;28;20017;-77
2022/05/08 04:21:47;;;;;;;29.90;7.28;;;7.80;99.90;;;;;;5034491;28;20032;-76
2022/05/08 04:24:19;;;;;;;31.15;7.45;;;7.80;99.90;;;;;;5033312;28;20434;-76
2022/05/08 04:26:46;;;;;;;25.77;6.50;;;7.80;99.90;;;;;;5033761;28;20104;-76
2022/05/08 04:29:11;;;;;;;32.55;6.65;;;7.80;99.90;;;;;;5034007;28;20035;-76
2022/05/08 04:31:37;;;;;;;27.35;7.22;;;7.80;99.90;;;;;;5034302;28;20025;-77
2022/05/08 04:34:03;;;;;;;31.33;6.45;;;7.80;99.90;;;;;;5035690;28;20029;-77
2022/05/08 04:36:29;;;;;;;27.70;5.65;;;7.90;99.90;;;;;;5033519;28;20422;-74
2022/05/08 04:38:55;;;;;;;38.38;6.63;;;7.90;99.90;;;;;;5032274;28;20398;-74
2022/05/08 04:41:21;;;;;;;24.27;5.85;;;7.90;99.90;;;;;;5034340;28;20037;-76
2022/05/08 04:43:46;;;;;;;25.20;4.75;;;7.90;99.90;;;;;;5037560;28;20030;-77
2022/05/08 04:46:12;;;;;;;28.02;5.10;;;7.90;99.90;;;;;;5032952;28;20022;-76
2022/05/08 04:48:38;;;;;;;25.80;5.40;;;8.00;99.90;;;;;;5032914;28;20021;-75
2022/05/08 04:51:04;;;;;;;34.33;5.20;;;8.00;99.90;;;;;;5034711;28;20032;-79
2022/05/08 04:53:33;;;;;;;25.80;5.25;;;8.10;99.90;;;;;;5035547;28;20100;-77
2022/05/08 04:55:59;;;;;;;20.20;5.10;;;8.20;99.90;;;;;;5038021;28;20033;-75
2022/05/08 04:58:29;;;;;;;23.83;5.15;;;8.20;99.90;;;;;;5041031;28;20040;-77
2022/05/08 05:01:00;;;;;;;27.98;4.72;;;8.30;99.90;;;;;;5039274;28;20507;-79
2022/05/08 05:03:26;;;;;;;28.65;4.85;;;8.40;99.90;;;;;;5033574;28;20034;-77
2022/05/08 05:05:51;;;;;;;25.25;5.05;;;8.50;99.90;;;;;;5032796;28;20017;-79
2022/05/08 05:08:18;;;;;;;31.08;5.60;;;8.70;99.90;;;;;;5033078;28;20018;-78
2022/05/08 05:10:44;;;;;;;26.27;4.78;;;8.70;99.90;;;;;;5034250;28;20025;-80
2022/05/08 05:13:10;;;;;;;21.65;3.85;;;8.70;99.90;;;;;;5036638;28;20039;-81
2022/05/08 05:15:35;;;;;;;25.38;3.83;;;8.70;99.90;;;;;;5035058;28;20030;-80
2022/05/08 05:18:01;;;;;;;18.90;3.75;;;8.80;99.90;;;;;;5036621;28;20021;-78
2022/05/08 05:20:28;;;;;;;24.05;3.97;;;8.80;99.90;;;;;;5038897;28;20033;-79
2022/05/08 05:22:54;;;;;;;24.38;4.35;;;8.80;99.90;;;;;;5041430;28;20075;-78
2022/05/08 05:25:19;;;;;;;27.08;4.50;;;8.80;99.90;;;;;;5042653;28;20021;-79
2022/05/08 05:27:45;;;;;;;20.85;4.00;;;8.90;99.90;;;;;;5043060;28;20386;-77
2022/05/08 05:30:11;;;;;;;29.85;4.68;;;8.90;99.90;;;;;;5039201;28;20032;-77
2022/05/08 05:32:39;;;;;;;28.08;4.55;;;8.90;99.90;;;;;;5038072;28;20037;-76
2022/05/08 05:35:05;;;;;;;23.85;4.28;;;8.90;99.90;;;;;;5038632;28;20025;-75
2022/05/08 05:37:31;;;;;;;28.65;5.13;;;8.90;99.90;;;;;;5039651;28;20036;-77
2022/05/08 05:39:56;;;;;;;22.77;4.38;;;9.00;99.90;;;;;;5040250;28;20033;-78
2022/05/08 05:42:23;;;;;;;29.80;4.35;;;9.10;99.90;;;;;;5040622;28;20386;-77
2022/05/08 05:44:49;;;;;;;30.70;4.78;;;9.10;99.90;;;;;;5040117;28;20383;-77
2022/05/08 05:49:58;;;;;;;26.67;4.30;;;9.30;99.90;;;;;;5041101;28;20051;-77
2022/05/08 05:52:24;;;;;;;22.75;4.10;;;9.30;99.90;;;;;;5034979;28;20123;-77
2022/05/08 05:54:50;;;;;;;37.10;5.22;;;9.40;99.90;;;;;;5038195;28;20041;-77
2022/05/08 05:57:15;;;;;;;22.27;4.15;;;9.50;99.90;;;;;;5036236;28;20060;-77
2022/05/08 05:59:41;;;;;;;37.05;4.50;;;9.50;99.90;;;;;;5036237;28;20037;-78
2022/05/08 06:02:07;;;;;;;31.00;4.43;;;9.50;99.90;;;;;;5040444;28;20026;-77
2022/05/08 06:04:33;;;;;;;26.45;4.70;;;9.50;99.90;;;;;;5041849;28;20017;-78
2022/05/08 06:06:58;;;;;;;29.20;5.07;;;9.60;99.90;;;;;;5041651;28;20031;-78
2022/05/08 06:09:24;;;;;;;28.35;4.95;;;9.60;99.90;;;;;;5041568;28;20025;-78
2022/05/08 06:11:50;;;;;;;30.70;5.22;;;9.60;99.90;;;;;;5039568;28;20064;-77
2022/05/08 06:14:15;;;;;;;38.33;4.65;;;9.70;99.90;;;;;;5038599;28;20033;-77
2022/05/08 06:16:42;;;;;;;27.83;4.05;;;9.70;99.90;;;;;;5042482;28;20099;-77
2022/05/08 06:19:08;;;;;;;29.10;3.90;;;9.70;99.90;;;;;;5045638;28;20029;-79
2022/05/08 06:21:34;;;;;;;32.88;4.07;;;9.80;99.90;;;;;;5047261;28;20028;-78
2022/05/08 06:23:59;;;;;;;45.72;5.63;;;9.80;99.90;;;;;;5047211;28;20029;-78
2022/05/08 06:26:25;;;;;;;33.88;5.00;;;9.90;99.90;;;;;;5047911;28;20037;-80
2022/05/08 06:28:50;;;;;;;27.48;4.32;;;9.90;99.90;;;;;;5049036;28;20108;-78
2022/05/08 06:31:17;;;;;;;29.70;5.03;;;10.00;99.90;;;;;;5045064;28;20028;-79
2022/05/08 06:33:46;;;;;;;33.88;4.57;;;10.10;99.90;;;;;;5052073;28;20080;-79
2022/05/08 06:36:12;;;;;;;33.20;6.00;;;10.10;99.90;;;;;;5053182;28;20029;-79
2022/05/08 06:38:38;;;;;;;25.30;4.18;;;10.20;99.90;;;;;;5052470;28;20025;-80
2022/05/08 06:41:03;;;;;;;28.52;4.30;;;10.30;99.90;;;;;;5048433;28;20029;-79
2022/05/08 06:43:29;;;;;;;34.60;3.90;;;10.30;99.90;;;;;;5044022;28;20029;-78
2022/05/08 06:45:55;;;;;;;36.70;5.25;;;10.40;99.90;;;;;;5043554;28;20048;-78
2022/05/08 06:48:20;;;;;;;35.60;5.15;;;10.50;99.90;;;;;;5042613;28;20024;-76
2022/05/08 06:50:46;;;;;;;29.58;4.32;;;10.50;99.90;;;;;;5046275;28;20014;-76
2022/05/08 06:53:12;;;;;;;34.58;4.45;;;10.60;99.90;;;;;;5043283;28;20055;-76
2022/05/08 06:55:37;;;;;;;32.35;4.63;;;10.70;99.90;;;;;;5045049;28;20033;-76
2022/05/08 06:58:03;;;;;;;37.70;5.03;;;10.70;99.90;;;;;;5045427;28;20030;-77
2022/05/08 07:03:13;;;;;;;30.80;4.75;;;10.80;99.90;;;;;;5036295;28;20169;-76
2022/05/08 07:05:45;;;;;;;21.85;4.13;;;10.90;99.90;;;;;;5033743;28;20067;-76
2022/05/08 07:08:10;;;;;;;44.92;5.20;;;11.00;99.90;;;;;;5037206;28;20024;-77
2022/05/08 07:10:36;;;;;;;33.55;5.25;;;11.00;99.90;;;;;;5036278;28;20022;-77
2022/05/08 07:13:02;;;;;;;35.85;4.93;;;11.10;99.90;;;;;;5036769;28;20033;-77
2022/05/08 07:15:28;;;;;;;34.63;4.55;;;11.20;99.90;;;;;;5034599;28;20041;-76
2022/05/08 07:17:53;;;;;;;35.55;4.43;;;11.20;99.90;;;;;;5035952;28;20033;-79
2022/05/08 07:20:19;;;;;;;26.10;4.30;;;11.30;99.90;;;;;;5039027;28;20081;-76
2022/05/08 07:22:44;;;;;;;37.92;4.95;;;11.40;99.90;;;;;;5043689;28;20045;-77
2022/05/08 07:25:12;;;;;;;24.77;4.22;;;11.50;99.90;;;;;;5045204;28;20550;-77
2022/05/08 07:27:39;;;;;;;31.35;4.70;;;11.40;99.90;;;;;;5044433;28;20025;-78
2022/05/08 07:30:06;;;;;;;29.23;5.45;;;11.70;99.90;;;;;;5046000;28;20105;-78
2022/05/08 07:32:33;;;;;;;32.25;5.25;;;11.70;99.90;;;;;;5046239;28;20029;-78
2022/05/08 07:37:46;;;;;;;41.78;5.72;;;11.80;99.90;;;;;;5044348;28;20043;-77
2022/05/08 07:40:12;;;;;;;33.80;5.25;;;11.90;99.90;;;;;;5047795;28;20030;-77
2022/05/08 07:42:38;;;;;;;25.40;4.75;;;11.90;99.90;;;;;;5048526;28;20033;-77
2022/05/08 07:45:05;;;;;;;29.17;4.80;;;11.90;99.90;;;;;;5040155;28;20041;-78
2022/05/08 07:47:31;;;;;;;38.10;4.80;;;12.10;99.90;;;;;;5038724;28;20022;-81
2022/05/08 07:49:57;;;;;;;40.65;5.10;;;12.20;99.90;;;;;;5036994;28;20052;-79
2022/05/08 07:52:23;;;;;;;31.08;5.25;;;12.20;99.90;;;;;;5037236;28;20028;-80
2022/05/08 07:54:49;;;;;;;28.70;4.63;;;12.30;99.90;;;;;;5035027;28;20068;-77
2022/05/08 07:57:15;;;;;;;22.17;3.88;;;12.40;99.90;;;;;;5034447;28;20030;-76
2022/05/08 07:59:41;;;;;;;35.08;5.25;;;12.60;99.90;;;;;;5035565;28;20030;-80
2022/05/08 08:02:07;;;;;;;29.40;4.50;;;12.70;99.90;;;;;;5035386;28;20091;-79
2022/05/08 08:04:34;;;;;;;29.05;4.68;;;12.70;99.90;;;;;;5034406;28;20018;-77
2022/05/08 08:07:00;;;;;;;37.90;4.60;;;12.80;99.90;;;;;;5037921;28;20017;-80
2022/05/08 08:09:26;;;;;;;24.35;4.35;;;12.80;99.90;;;;;;5042643;28;20033;-78
2022/05/08 08:11:53;;;;;;;27.00;5.13;;;12.80;99.90;;;;;;5036947;28;20033;-79
2022/05/08 08:14:19;;;;;;;24.45;4.63;;;12.90;99.90;;;;;;5035676;28;20056;-78
2022/05/08 08:16:45;;;;;;;23.77;4.40;;;12.90;99.90;;;;;;5035830;28;20034;-77
2022/05/08 08:19:11;;;;;;;24.55;3.95;;;13.00;99.90;;;;;;5035477;28;20033;-79
2022/05/08 08:21:36;;;;;;;28.63;4.75;;;13.10;99.90;;;;;;5036434;28;20029;-78
2022/05/08 08:24:02;;;;;;;41.65;5.63;;;13.20;99.90;;;;;;5035860;28;20025;-80
2022/05/08 08:26:27;;;;;;;25.20;4.97;;;13.30;99.90;;;;;;5036657;28;20056;-77
2022/05/08 08:28:53;;;;;;;34.25;4.78;;;13.30;99.90;;;;;;5048487;28;20029;-78
2022/05/08 08:31:18;;;;;;;26.88;5.18;;;13.40;99.90;;;;;;5033979;28;20032;-78
2022/05/08 08:33:48;;;;;;;26.45;4.50;;;13.50;99.90;;;;;;5034772;28;20100;-77
2022/05/08 08:36:13;;;;;;;25.35;4.60;;;13.60;99.90;;;;;;5037529;28;20026;-78
2022/05/08 08:38:40;;;;;;;23.60;4.75;;;13.60;99.90;;;;;;5034130;28;20036;-80
2022/05/08 08:41:07;;;;;;;25.13;4.50;;;13.80;99.90;;;;;;5037105;28;20040;-78
2022/05/08 08:49:24;;;;;;;23.80;3.90;;;13.90;99.90;;;;;;5036787;28;20029;-80
2022/05/08 08:51:51;;;;;;;31.83;4.68;;;13.90;99.90;;;;;;5039144;28;20080;-78
2022/05/08 08:54:21;;;;;;;16.05;4.40;;;14.00;99.90;;;;;;5042745;28;20065;-79
2022/05/08 08:56:48;;;;;;;29.27;5.50;;;14.20;99.90;;;;;;5041336;28;20060;-78
2022/05/08 08:59:13;;;;;;;25.20;4.95;;;14.30;99.90;;;;;;5041996;28;20025;-78
2022/05/08 09:01:41;;;;;;;24.13;4.70;;;14.50;99.90;;;;;;5041265;28;20052;-78
2022/05/08 09:04:09;;;;;;;28.10;5.15;;;14.60;99.90;;;;;;5041845;28;20021;-79
2022/05/08 09:06:43;;;;;;;26.52;4.82;;;14.60;99.90;;;;;;5041737;28;20014;-78
2022/05/08 09:09:28;;;;;;;25.63;5.00;;;14.70;99.90;;;;;;5042898;28;20089;-78
2022/05/08 09:11:56;;;;;;;20.60;3.85;;;14.80;99.90;;;;;;5039442;28;20037;-78
2022/05/08 09:14:35;;;;;;;32.22;4.43;;;15.00;99.90;;;;;;5038976;28;20034;-79
2022/05/08 09:17:03;;;;;;;31.85;4.20;;;15.10;99.90;;;;;;5035890;28;20022;-78
2022/05/08 09:19:39;;;;;;;29.23;4.57;;;15.20;99.90;;;;;;5037014;28;20017;-79
2022/05/08 09:22:06;;;;;;;33.30;4.97;;;15.30;99.90;;;;;;5037698;28;20045;-78
2022/05/08 09:24:32;;;;;;;32.35;5.47;;;15.30;99.90;;;;;;5037156;28;20041;-80
2022/05/08 09:27:18;;;;;;;28.83;5.10;;;15.40;99.90;;;;;;5037491;28;20018;-79
2022/05/08 09:29:44;;;;;;;30.95;5.38;;;15.60;99.90;;;;;;5035220;28;20058;-77
2022/05/08 09:32:31;;;;;;;21.50;3.97;;;15.70;99.90;;;;;;5038512;28;20029;-78
2022/05/08 09:34:57;;;;;;;24.52;4.68;;;15.80;99.90;;;;;;5038088;28;20052;-77
2022/05/08 09:37:24;;;;;;;20.02;5.03;;;15.80;99.90;;;;;;5052309;28;20037;-78
2022/05/08 09:39:50;;;;;;;27.20;4.68;;;16.00;99.90;;;;;;5051097;28;20024;-77
2022/05/08 09:42:34;;;;;;;27.35;5.13;;;16.20;99.90;;;;;;5039129;28;20093;-79
2022/05/08 09:45:07;;;;;;;23.33;6.25;;;16.30;99.90;;;;;;5037111;28;20032;-79
2022/05/08 09:47:49;;;;;;;24.40;4.18;;;16.30;99.90;;;;;;5036910;28;20009;-79
2022/05/08 09:50:17;;;;;;;23.83;3.85;;;16.20;99.90;;;;;;5037922;28;20032;-79
2022/05/08 09:52:45;;;;;;;20.70;4.05;;;16.20;99.90;;;;;;5037323;28;20120;-78
2022/05/08 09:55:12;;;;;;;23.98;4.43;;;16.30;99.90;;;;;;5038112;28;20025;-79
2022/05/08 09:57:41;;;;;;;30.13;4.93;;;16.40;99.90;;;;;;5036716;28;20040;-78
2022/05/08 10:00:08;;;;;;;23.15;5.57;;;16.40;99.90;;;;;;5036202;28;20494;-77
2022/05/08 10:02:38;;;;;;;29.00;4.63;;;16.50;99.90;;;;;;5037065;28;20483;-79
2022/05/08 10:05:05;;;;;;;21.83;4.15;;;16.70;99.90;;;;;;5037169;28;20040;-77
2022/05/08 10:07:32;;;;;;;25.50;4.38;;;16.70;99.60;;;;;;5047836;28;20441;-78
2022/05/08 10:15:29;;;;;;;24.60;4.88;;;17.00;98.00;;;;;;5038342;28;20109;-77
2022/05/08 10:18:30;;;;;;;24.67;4.32;;;17.00;98.20;;;;;;5040164;28;20053;-78
2022/05/08 10:21:05;;;;;;;24.10;6.15;;;17.10;98.20;;;;;;5038094;28;20458;-78
2022/05/08 10:23:43;;;;;;;23.10;4.50;;;17.30;98.40;;;;;;5038725;28;20025;-77
2022/05/08 10:26:22;;;;;;;23.15;5.32;;;17.40;97.60;;;;;;5043461;28;20021;-77
2022/05/08 10:29:11;;;;;;;25.67;4.95;;;17.50;97.70;;;;;;5042145;28;20561;-79
2022/05/08 10:31:42;;;;;;;25.65;4.43;;;17.50;97.30;;;;;;5037927;28;20028;-78
2022/05/08 10:34:09;;;;;;;23.77;5.07;;;17.50;97.70;;;;;;5035028;28;20030;-78
2022/05/08 10:36:34;;;;;;;22.85;5.63;;;17.50;97.30;;;;;;5035830;28;20036;-77
2022/05/08 10:39:36;;;;;;;19.70;4.22;;;17.60;97.50;;;;;;5037694;28;20029;-78
2022/05/08 10:42:02;;;;;;;30.20;4.72;;;17.70;97.90;;;;;;5025910;28;20042;-78
2022/05/08 10:44:35;;;;;;;21.52;4.40;;;17.80;97.60;;;;;;5042080;28;20040;-77
2022/05/08 10:47:32;;;;;;;27.52;5.28;;;18.00;97.30;;;;;;5039944;28;20441;-77
2022/05/08 10:49:58;;;;;;;21.50;4.50;;;18.00;96.90;;;;;;5042964;28;20410;-79
2022/05/08 10:52:24;;;;;;;29.08;4.68;;;18.10;96.00;;;;;;5041227;28;20029;-77
2022/05/08 10:55:00;;;;;;;20.15;4.90;;;18.20;95.60;;;;;;5042063;28;20037;-78
2022/05/08 10:57:33;;;;;;;22.65;4.72;;;18.30;94.20;;;;;;5040621;28;20026;-78
2022/05/08 11:00:02;;;;;;;17.98;4.32;;;18.30;93.90;;;;;;5045890;28;20036;-76
2022/05/08 11:02:42;;;;;;;33.20;5.03;;;18.40;92.80;;;;;;5046162;28;20025;-78
2022/05/08 11:05:09;;;;;;;22.90;4.18;;;18.30;93.30;;;;;;5043154;28;20026;-78
2022/05/08 11:07:34;;;;;;;17.65;3.90;;;18.30;93.30;;;;;;5040997;28;20064;-80
2022/05/08 11:10:00;;;;;;;28.85;5.63;;;18.30;93.20;;;;;;5040957;28;20025;-77
2022/05/08 11:12:26;;;;;;;25.90;4.35;;;18.40;93.40;;;;;;5050709;28;20040;-77
2022/05/08 11:15:13;;;;;;;24.77;4.70;;;18.40;93.20;;;;;;5048876;28;20021;-78
2022/05/08 11:17:38;;;;;;;17.73;4.60;;;18.40;93.10;;;;;;5043399;28;20104;-78
2022/05/08 11:20:04;;;;;;;27.10;6.13;;;18.60;93.10;;;;;;5040453;28;20498;-80
2022/05/08 11:22:31;;;;;;;19.08;4.03;;;18.80;92.80;;;;;;5041167;28;20025;-78
2022/05/08 11:25:13;;;;;;;25.33;5.03;;;18.90;92.10;;;;;;5040799;28;20048;-76
2022/05/08 11:27:38;;;;;;;20.17;3.97;;;19.00;91.80;;;;;;5040799;28;20022;-80
2022/05/08 11:30:06;;;;;;;19.13;4.25;;;19.10;91.20;;;;;;5042377;28;20033;-77
2022/05/08 11:38:14;;;;;;;23.53;5.17;;;19.40;90.50;;;;;;5036083;28;20066;-77
2022/05/08 11:40:41;;;;;;;18.70;4.53;;;19.50;91.00;;;;;;5035771;28;20017;-77
2022/05/08 11:43:06;;;;;;;22.58;4.82;;;19.60;90.00;;;;;;5036414;28;20021;-78
2022/05/08 11:45:32;;;;;;;24.95;4.70;;;19.60;89.50;;;;;;5034440;28;20388;-78
2022/05/08 11:47:57;;;;;;;18.00;4.45;;;19.70;88.50;;;;;;5036103;28;20017;-78
2022/05/08 11:50:23;;;;;;;16.98;4.47;;;19.80;89.40;;;;;;5035835;28;20025;-77
2022/05/08 11:52:58;;;;;;;16.00;3.72;;;19.80;86.80;;;;;;5034564;28;20026;-79
2022/05/08 11:55:23;;;;;;;17.75;4.07;;;19.90;85.80;;;;;;5035605;28;20130;-77
2022/05/08 11:57:50;;;;;;;25.58;5.93;;;19.90;85.30;;;;;;5034655;28;20026;-77
2022/05/08 12:00:15;;;;;;;18.75;3.95;;;19.90;85.80;;;;;;5034557;28;20068;-78
2022/05/08 12:02:51;;;;;;;20.42;4.25;;;20.00;85.40;;;;;;5035815;28;20041;-77
2022/05/08 12:05:24;;;;;;;15.68;3.55;;;20.10;84.70;;;;;;5036324;28;20117;-79
2022/05/08 12:07:51;;;;;;;30.60;5.43;;;20.20;84.40;;;;;;5036593;28;20084;-76
2022/05/08 12:10:17;;;;;;;25.30;4.10;;;20.40;84.40;;;;;;5037867;28;20024;-76
2022/05/08 12:12:44;;;;;;;22.90;4.50;;;20.40;82.00;;;;;;5048405;28;20485;-76
2022/05/08 12:15:15;;;;;;;23.48;4.13;;;20.40;81.60;;;;;;5049919;28;20414;-78
2022/05/08 12:17:44;;;;;;;22.38;4.47;;;20.40;81.40;;;;;;5050365;28;20060;-77
2022/05/08 12:20:15;;;;;;;18.77;3.92;;;20.40;81.80;;;;;;5050911;28;20056;-76
2022/05/08 12:22:41;;;;;;;18.20;3.80;;;20.50;81.60;;;;;;5046353;28;20033;-77
2022/05/08 12:25:07;;;;;;;19.75;4.22;;;20.50;82.00;;;;;;5044365;28;20022;-77
2022/05/08 12:27:34;;;;;;;27.80;4.43;;;20.40;80.80;;;;;;5044943;28;20021;-78
2022/05/08 12:30:00;;;;;;;21.60;4.45;;;20.30;81.00;;;;;;5044318;28;20045;-77
2022/05/08 12:32:26;;;;;;;22.25;4.70;;;20.40;81.20;;;;;;5039767;28;20021;-77
2022/05/08 12:34:53;;;;;;;15.93;3.97;;;20.50;80.30;;;;;;5037943;28;20025;-78
2022/05/08 12:37:20;;;;;;;17.48;4.35;;;20.60;80.20;;;;;;5036918;28;20049;-77
2022/05/08 12:39:46;;;;;;;20.17;3.92;;;20.80;79.90;;;;;;5036190;28;20025;-78
2022/05/08 12:42:12;;;;;;;21.85;3.92;;;20.90;79.70;;;;;;5038084;28;20053;-77
2022/05/08 12:44:38;;;;;;;24.17;4.07;;;21.00;79.80;;;;;;5039374;28;20567;-78
2022/05/08 12:47:08;;;;;;;19.48;4.18;;;21.10;78.20;;;;;;5047274;28;20026;-77
2022/05/08 12:49:36;;;;;;;18.80;3.42;;;21.20;76.90;;;;;;5049175;28;20025;-77
2022/05/08 12:52:03;;;;;;;20.88;4.28;;;21.20;77.20;;;;;;5047496;28;20018;-77
2022/05/08 12:54:29;;;;;;;18.15;4.18;;;21.30;77.60;;;;;;5039989;28;20033;-77
2022/05/08 12:56:54;;;;;;;18.15;3.78;;;21.40;77.10;;;;;;5039947;28;20036;-77
2022/05/08 13:02:04;;;;;;;22.80;5.05;;;21.90;73.40;;;;;;5035876;28;20063;-78
2022/05/08 13:04:30;;;;;;;17.67;3.65;;;22.00;73.50;;;;;;5036257;28;20049;-78
2022/05/08 13:06:56;;;;;;;21.00;3.65;;;21.90;72.60;;;;;;5039121;28;20510;-77
2022/05/08 13:09:21;;;;;;;17.83;3.90;;;22.00;73.10;;;;;;5039696;28;20048;-78
2022/05/08 13:11:48;;;;;;;17.38;4.25;;;22.20;73.10;;;;;;5035214;28;20021;-77
2022/05/08 13:14:14;;;;;;;25.35;4.43;;;22.30;72.70;;;;;;5040193;28;20032;-78
2022/05/08 13:16:40;;;;;;;17.42;3.60;;;22.60;71.40;;;;;;5039525;28;20392;-77
2022/05/08 13:19:05;;;;;;;23.38;3.65;;;22.90;70.00;;;;;;5035250;28;20025;-78
2022/05/08 13:21:31;;;;;;;19.83;4.30;;;23.40;69.60;;;;;;5035401;28;20032;-78